createdAt,value
2019-06-08T00:00:12.995Z,95500.80
2019-06-08T00:02:41.253Z,95493.20
2019-06-08T00:05:10.008Z,95488.22
2019-06-08T00:07:38.919Z,95500.01
2019-06-08T00:10:08.369Z,95498.45
2019-06-08T00:12:36.956Z,95486.84
2019-06-08T00:15:07.188Z,95492.89
2019-06-08T00:17:38.936Z,95489.47
2019-06-08T00:20:08.669Z,95488.43
2019-06-08T00:22:37.518Z,95488.67
2019-06-08T00:25:06.784Z,95484.18
2019-06-08T00:27:35.435Z,95495.97
2019-06-08T00:30:06.199Z,95499.87
2019-06-08T00:32:34.897Z,95494.89
2019-06-08T00:35:04.251Z,95500.62
2019-06-08T00:37:32.912Z,95491.41
2019-06-08T00:40:01.594Z,95481.69
2019-06-08T00:42:30.225Z,95490.36
2019-06-08T00:44:58.897Z,95487.25
2019-06-08T00:47:42.493Z,95479.86
2019-06-08T00:49:57.987Z,95478.72
2019-06-08T00:52:26.637Z,95477.75
2019-06-08T00:54:55.298Z,95476.34
2019-06-08T00:57:24.062Z,95483.97
2019-06-08T00:59:52.811Z,95485.52
2019-06-08T01:02:22.581Z,95477.64
2019-06-08T01:04:51.328Z,95476.75
2019-06-08T01:07:20.007Z,95469.98
2019-06-08T01:09:48.649Z,95467.31
2019-06-08T01:12:18.625Z,95466.20
2019-06-08T01:14:47.538Z,95468.11
2019-06-08T01:17:16.198Z,95462.30
2019-06-08T01:19:44.852Z,95463.82
2019-06-08T01:22:13.515Z,95466.45
2019-06-08T01:24:42.472Z,95472.45
2019-06-08T01:27:11.361Z,95462.74
2019-06-08T01:29:39.936Z,95466.64
2019-06-08T01:32:08.591Z,95467.39
2019-06-08T01:34:37.272Z,95465.49
2019-06-08T01:37:05.870Z,95458.66
2019-06-08T01:39:34.532Z,95464.41
2019-06-08T01:42:03.187Z,95468.07
2019-06-08T01:44:32.089Z,95470.38
2019-06-08T01:47:00.793Z,95475.09
2019-06-08T01:49:30.592Z,95475.58
2019-06-08T01:51:59.330Z,95477.88
2019-06-08T01:54:29.710Z,95480.22
2019-06-08T01:56:58.409Z,95487.53
2019-06-08T01:59:27.438Z,95491.69
2019-06-08T02:01:56.057Z,95496.61
2019-06-08T02:04:25.931Z,95491.61
2019-06-08T02:06:54.685Z,95498.95
2019-06-08T02:09:24.524Z,95491.55
2019-06-08T02:11:53.323Z,95499.98
2019-06-08T02:14:22.019Z,95495.68
2019-06-08T02:16:50.763Z,95491.41
2019-06-08T02:19:19.432Z,95507.14
2019-06-08T02:21:48.093Z,95500.62
2019-06-08T02:24:16.795Z,95505.55
2019-06-08T02:26:45.459Z,95490.23
2019-06-08T02:29:14.139Z,95490.23
2019-06-08T02:31:42.783Z,95486.20
2019-06-08T02:34:11.433Z,95488.41
2019-06-08T02:36:40.816Z,95490.00
2019-06-08T02:39:09.662Z,95485.72
2019-06-08T02:41:39.949Z,95479.69
2019-06-08T02:44:08.746Z,95483.45
2019-06-08T02:46:40.087Z,95479.39
2019-06-08T02:49:08.521Z,95483.05
2019-06-08T02:51:38.253Z,95477.80
2019-06-08T02:54:07.186Z,95486.98
2019-06-08T02:56:37.345Z,95481.52
2019-06-08T02:59:07.125Z,95473.50
2019-06-08T03:01:38.148Z,95490.17
2019-06-08T03:04:06.593Z,95487.78
2019-06-08T03:06:39.462Z,95488.81
2019-06-08T03:09:08.691Z,95490.23
2019-06-08T03:11:39.004Z,95496.77
2019-06-08T03:14:08.147Z,95498.89
2019-06-08T03:16:40.389Z,95503.10
2019-06-08T03:19:20.916Z,95503.22
2019-06-08T03:21:38.856Z,95502.72
2019-06-08T03:24:07.859Z,95499.87
2019-06-08T03:26:39.050Z,95495.74
2019-06-08T03:29:06.891Z,95506.52
2019-06-08T03:31:42.429Z,95503.96
2019-06-08T03:34:05.893Z,95502.08
2019-06-08T03:36:39.012Z,95502.08
2019-06-08T03:39:07.256Z,95509.70
2019-06-08T03:41:36.265Z,95505.67
2019-06-08T03:44:06.312Z,95506.52
2019-06-08T03:46:36.386Z,95514.86
2019-06-08T03:49:05.166Z,95518.60
2019-06-08T03:51:36.054Z,95513.92
2019-06-08T03:54:04.156Z,95516.12
2019-06-08T03:56:32.837Z,95517.45
2019-06-08T03:59:01.583Z,95516.98
2019-06-08T04:01:30.293Z,95527.00
2019-06-08T04:04:00.126Z,95523.22
2019-06-08T04:06:28.835Z,95526.45
2019-06-08T04:08:57.505Z,95517.36
2019-06-08T04:11:26.090Z,95517.78
2019-06-08T04:13:54.785Z,95523.66
2019-06-08T04:16:23.450Z,95526.93
2019-06-08T04:18:52.104Z,95527.56
2019-06-08T04:21:20.697Z,95529.82
2019-06-08T04:23:50.674Z,95527.19
2019-06-08T04:26:19.676Z,95517.17
2019-06-08T04:28:49.628Z,95530.21
2019-06-08T04:31:18.304Z,95529.52
2019-06-08T04:33:47.062Z,95528.80
2019-06-08T04:36:15.717Z,95530.73
2019-06-08T04:38:45.716Z,95530.02
2019-06-08T04:41:14.730Z,95533.78
2019-06-08T04:43:44.960Z,95532.28
2019-06-08T04:46:13.769Z,95538.41
2019-06-08T04:48:43.134Z,95530.62
2019-06-08T04:51:12.833Z,95532.77
2019-06-08T04:53:43.086Z,95536.53
2019-06-08T04:56:11.919Z,95538.68
2019-06-08T04:58:42.185Z,95538.75
2019-06-08T05:01:10.951Z,95535.13
2019-06-08T05:03:41.222Z,95537.28
2019-06-08T05:06:09.859Z,95543.14
2019-06-08T05:08:39.033Z,95539.51
2019-06-08T05:11:07.870Z,95535.88
2019-06-08T05:13:36.586Z,95538.80
2019-06-08T05:16:05.241Z,95526.98
2019-06-08T05:18:33.823Z,95538.05
2019-06-08T05:21:02.416Z,95537.84
2019-06-08T05:23:31.074Z,95536.01
2019-06-08T05:25:59.748Z,95542.84
2019-06-08T05:28:28.420Z,95542.59
2019-06-08T05:30:57.229Z,95553.39
2019-06-08T05:33:25.896Z,95549.16
2019-06-08T05:35:54.553Z,95547.06
2019-06-08T05:38:23.227Z,95540.70
2019-06-08T05:40:51.878Z,95543.09
2019-06-08T05:43:20.490Z,95545.73
2019-06-08T05:45:49.980Z,95547.54
2019-06-08T05:48:19.247Z,95552.22
2019-06-08T05:51:02.693Z,95547.96
2019-06-08T05:53:18.232Z,95545.73
2019-06-08T05:55:47.993Z,95554.14
2019-06-08T05:58:16.741Z,95566.00
2019-06-08T06:00:46.275Z,95567.17
2019-06-08T06:03:15.037Z,95572.02
2019-06-08T06:05:44.346Z,95564.67
2019-06-08T06:08:18.884Z,95568.50
2019-06-08T06:10:44.772Z,95575.47
2019-06-08T06:13:13.635Z,95575.14
2019-06-08T06:15:42.970Z,95580.64
2019-06-08T06:18:11.662Z,95581.82
2019-06-08T06:20:41.006Z,95578.65
2019-06-08T06:23:09.849Z,95581.58
2019-06-08T06:25:38.502Z,95585.05
2019-06-08T06:28:07.217Z,95581.27
2019-06-08T06:30:35.959Z,95579.68
2019-06-08T06:33:04.620Z,95581.47
2019-06-08T06:35:33.281Z,95571.34
2019-06-08T06:38:01.928Z,95568.41
2019-06-08T06:40:30.702Z,95578.49
2019-06-08T06:42:59.352Z,95578.30
2019-06-08T06:45:28.022Z,95578.08
2019-06-08T06:47:56.733Z,95574.52
2019-06-08T06:50:25.417Z,95570.78
2019-06-08T06:52:54.071Z,95568.11
2019-06-08T06:55:25.368Z,95564.77
2019-06-08T06:57:53.615Z,95565.70
2019-06-08T07:00:32.551Z,95564.98
2019-06-08T07:03:02.274Z,95558.19
2019-06-08T07:05:30.930Z,95554.33
2019-06-08T07:07:59.579Z,95565.03
2019-06-08T07:10:28.175Z,95565.78
2019-06-08T07:12:56.830Z,95571.56
2019-06-08T07:15:29.522Z,95569.66
2019-06-08T07:17:58.714Z,95569.39
2019-06-08T07:20:27.437Z,95569.52
2019-06-08T07:22:56.084Z,95571.05
2019-06-08T07:25:24.759Z,95565.38
2019-06-08T07:27:54.958Z,95570.52
2019-06-08T07:30:23.894Z,95568.50
2019-06-08T07:32:53.037Z,95566.64
2019-06-08T07:35:21.692Z,95568.88
2019-06-08T07:37:51.876Z,95567.16
2019-06-08T07:40:20.644Z,95562.34
2019-06-08T07:42:50.807Z,95555.93
2019-06-08T07:45:19.681Z,95554.20
2019-06-08T07:47:48.375Z,95554.97
2019-06-08T07:50:17.260Z,95553.38
2019-06-08T07:52:45.935Z,95561.18
2019-06-08T07:55:14.618Z,95554.09
2019-06-08T07:57:43.278Z,95546.81
2019-06-08T08:00:12.185Z,95553.09
2019-06-08T08:02:40.849Z,95550.92
2019-06-08T08:05:09.805Z,95557.23
2019-06-08T08:07:38.474Z,95550.81
2019-06-08T08:10:07.907Z,95559.50
2019-06-08T08:12:36.569Z,95567.65
2019-06-08T08:15:08.458Z,95568.77
2019-06-08T08:17:37.247Z,95572.20
2019-06-08T08:20:07.503Z,95569.38
2019-06-08T08:22:38.172Z,95567.42
2019-06-08T08:25:08.290Z,95568.84
2019-06-08T08:27:37.621Z,95568.58
2019-06-08T08:30:08.417Z,95573.50
2019-06-08T08:32:37.996Z,95565.31
2019-06-08T08:35:08.741Z,95540.63
2019-06-08T08:37:38.111Z,95540.63
2019-06-08T08:40:07.878Z,95562.75
2019-06-08T08:42:38.709Z,95565.80
2019-06-08T08:45:08.780Z,95568.88
2019-06-08T08:47:38.819Z,95562.32
2019-06-08T08:50:10.351Z,95562.42
2019-06-08T08:52:40.944Z,95564.98
2019-06-08T08:55:09.722Z,95560.91
2019-06-08T08:57:41.509Z,95557.08
2019-06-08T09:00:09.630Z,95558.55
2019-06-08T09:02:38.309Z,95553.98
2019-06-08T09:05:08.587Z,95555.83
2019-06-08T09:07:38.564Z,95558.24
2019-06-08T09:10:08.526Z,95549.81
2019-06-08T09:12:38.013Z,95558.43
2019-06-08T09:15:08.652Z,95558.16
2019-06-08T09:17:38.834Z,95544.38
2019-06-08T09:20:09.379Z,95557.38
2019-06-08T09:22:52.951Z,95548.88
2019-06-08T09:25:09.035Z,95543.77
2019-06-08T09:27:38.231Z,95550.29
2019-06-08T09:30:08.423Z,95540.11
2019-06-08T09:32:38.188Z,95540.48
2019-06-08T09:35:09.384Z,95533.05
2019-06-08T09:37:37.731Z,95526.08
2019-06-08T09:40:07.532Z,95526.18
2019-06-08T09:42:36.786Z,95527.90
2019-06-08T09:45:09.484Z,95533.31
2019-06-08T09:47:38.280Z,95521.56
2019-06-08T09:50:11.690Z,95527.40
2019-06-08T09:52:41.369Z,95529.13
2019-06-08T09:55:11.004Z,95518.13
2019-06-08T09:57:39.754Z,95504.00
2019-06-08T10:00:17.935Z,95501.64
2019-06-08T10:02:39.328Z,95517.91
2019-06-08T10:05:08.225Z,95513.45
2019-06-08T10:07:38.846Z,95512.21
2019-06-08T10:10:09.805Z,95524.14
2019-06-08T10:12:41.067Z,95527.00
2019-06-08T10:15:09.485Z,95531.10
2019-06-08T10:17:38.183Z,95527.19
2019-06-08T10:20:09.805Z,95527.60
2019-06-08T10:22:37.729Z,95525.11
2019-06-08T10:25:11.284Z,95521.54
2019-06-08T10:27:40.313Z,95523.14
2019-06-08T10:30:10.443Z,95513.51
2019-06-08T10:32:39.454Z,95508.52
2019-06-08T10:35:10.605Z,95510.57
2019-06-08T10:37:39.432Z,95507.05
2019-06-08T10:40:10.115Z,95504.58
2019-06-08T10:42:40.208Z,95497.34
2019-06-08T10:45:14.672Z,95489.13
2019-06-08T10:47:40.990Z,95486.93
2019-06-08T10:50:15.156Z,95483.02
2019-06-08T10:52:41.052Z,95468.70
2019-06-08T10:55:12.234Z,95481.65
2019-06-08T10:57:41.154Z,95467.63
2019-06-08T11:00:20.145Z,95460.84
2019-06-08T11:02:42.241Z,95448.48
2019-06-08T11:05:13.903Z,95448.28
2019-06-08T11:07:41.482Z,95435.36
2019-06-08T11:10:12.405Z,95443.28
2019-06-08T11:12:40.996Z,95440.70
2019-06-08T11:15:11.754Z,95436.05
2019-06-08T11:17:40.377Z,95440.17
2019-06-08T11:20:13.076Z,95426.08
2019-06-08T11:23:00.770Z,95431.91
2019-06-08T11:25:29.007Z,95431.45
2019-06-08T11:27:58.682Z,95423.08
2019-06-08T11:30:30.559Z,95422.00
2019-06-08T11:32:59.759Z,95423.05
2019-06-08T11:35:28.703Z,95414.97
2019-06-08T11:37:58.489Z,95409.06
2019-06-08T11:40:28.008Z,95400.20
2019-06-08T11:42:58.622Z,95398.69
2019-06-08T11:45:27.231Z,95408.08
2019-06-08T11:47:58.193Z,95402.53
2019-06-08T11:50:41.577Z,95398.94
2019-06-08T11:53:12.650Z,95401.20
2019-06-08T11:55:39.093Z,95402.59
2019-06-08T11:58:11.861Z,95409.95
2019-06-08T12:00:48.881Z,95400.84
2019-06-08T12:03:17.642Z,95399.36
2019-06-08T12:05:47.771Z,95404.41
2019-06-08T12:08:17.696Z,95404.93
2019-06-08T12:10:49.090Z,95396.93
2019-06-08T12:13:17.979Z,95405.84
2019-06-08T12:15:48.797Z,95398.15
2019-06-08T12:18:18.131Z,95397.37
2019-06-08T12:20:48.821Z,95395.02
2019-06-08T12:23:17.609Z,95382.36
2019-06-08T12:25:46.276Z,95392.94
2019-06-08T12:28:14.940Z,95387.80
2019-06-08T12:30:43.720Z,95387.72
2019-06-08T12:33:13.832Z,95387.80
2019-06-08T12:35:42.529Z,95396.64
2019-06-08T12:38:12.686Z,95388.84
2019-06-08T12:40:41.780Z,95384.59
2019-06-08T12:43:12.858Z,95371.59
2019-06-08T12:45:41.013Z,95382.58
2019-06-08T12:48:15.304Z,95383.52
2019-06-08T12:50:40.055Z,95390.58
2019-06-08T12:53:13.444Z,95375.32
2019-06-08T12:55:39.147Z,95381.07
2019-06-08T12:58:09.646Z,95381.66
2019-06-08T13:00:38.216Z,95383.48
2019-06-08T13:03:08.599Z,95382.05
2019-06-08T13:05:37.977Z,95381.91
2019-06-08T13:08:09.746Z,95380.38
2019-06-08T13:10:38.150Z,95371.42
2019-06-08T13:13:08.460Z,95382.49
2019-06-08T13:15:38.439Z,95387.08
2019-06-08T13:18:08.939Z,95379.27
2019-06-08T13:20:38.872Z,95377.17
2019-06-08T13:23:08.700Z,95375.61
2019-06-08T13:25:43.472Z,95375.16
2019-06-08T13:28:13.056Z,95369.20
2019-06-08T13:30:39.119Z,95363.17
2019-06-08T13:33:08.246Z,95362.72
2019-06-08T13:35:39.566Z,95364.95
2019-06-08T13:38:08.776Z,95371.47
2019-06-08T13:40:40.181Z,95362.77
2019-06-08T13:43:08.311Z,95364.88
2019-06-08T13:45:39.379Z,95375.61
2019-06-08T13:48:08.942Z,95367.56
2019-06-08T13:50:37.910Z,95360.09
2019-06-08T13:53:10.639Z,95361.91
2019-06-08T13:55:49.535Z,95358.66
2019-06-08T13:58:07.344Z,95362.99
2019-06-08T14:00:38.561Z,95363.14
2019-06-08T14:03:08.653Z,95364.46
2019-06-08T14:05:38.813Z,95365.69
2019-06-08T14:08:10.655Z,95356.53
2019-06-08T14:10:39.966Z,95360.23
2019-06-08T14:13:08.841Z,95356.31
2019-06-08T14:15:38.025Z,95355.44
2019-06-08T14:18:08.734Z,95347.95
2019-06-08T14:20:38.538Z,95354.10
2019-06-08T14:23:09.150Z,95360.13
2019-06-08T14:25:47.889Z,95363.45
2019-06-08T14:28:08.388Z,95355.95
2019-06-08T14:30:37.684Z,95358.40
2019-06-08T14:33:08.260Z,95358.49
2019-06-08T14:35:36.989Z,95353.00
2019-06-08T14:38:05.656Z,95358.03
2019-06-08T14:40:34.440Z,95349.30
2019-06-08T14:43:03.090Z,95350.96
2019-06-08T14:45:31.755Z,95350.13
2019-06-08T14:48:00.420Z,95347.45
2019-06-08T14:50:31.012Z,95339.84
2019-06-08T14:52:59.470Z,95347.45
2019-06-08T14:55:32.102Z,95347.45
2019-06-08T14:57:58.549Z,95343.39
2019-06-08T15:00:27.780Z,95344.85
2019-06-08T15:02:58.969Z,95351.50
2019-06-08T15:05:30.718Z,95348.39
2019-06-08T15:08:00.448Z,95357.21
2019-06-08T15:10:29.741Z,95356.99
2019-06-08T15:12:58.888Z,95361.27
2019-06-08T15:15:30.426Z,95345.15
2019-06-08T15:17:58.436Z,95349.30
2019-06-08T15:20:28.619Z,95357.58
2019-06-08T15:22:57.871Z,95350.00
2019-06-08T15:25:29.502Z,95352.22
2019-06-08T15:27:59.755Z,95346.86
2019-06-08T15:30:30.628Z,95354.34
2019-06-08T15:32:58.664Z,95342.28
2019-06-08T15:35:27.578Z,95345.93
2019-06-08T15:37:58.462Z,95348.34
2019-06-08T15:40:27.725Z,95343.63
2019-06-08T15:42:58.582Z,95352.99
2019-06-08T15:45:29.423Z,95345.50
2019-06-08T15:47:58.714Z,95355.83
2019-06-08T15:50:28.460Z,95346.91
2019-06-08T15:52:59.832Z,95349.90
2019-06-08T15:55:31.400Z,95355.58
2019-06-08T15:57:58.668Z,95345.55
2019-06-08T16:00:29.585Z,95349.33
2019-06-08T16:02:58.184Z,95345.27
2019-06-08T16:05:27.755Z,95343.58
2019-06-08T16:07:56.735Z,95342.66
2019-06-08T16:10:26.326Z,95344.08
2019-06-08T16:12:55.083Z,95345.19
2019-06-08T16:15:24.881Z,95350.86
2019-06-08T16:17:53.662Z,95349.97
2019-06-08T16:20:22.368Z,95353.08
2019-06-08T16:22:50.990Z,95353.86
2019-06-08T16:25:19.685Z,95349.70
2019-06-08T16:27:48.338Z,95346.68
2019-06-08T16:30:17.141Z,95342.91
2019-06-08T16:32:45.817Z,95347.61
2019-06-08T16:35:14.545Z,95345.14
2019-06-08T16:37:43.151Z,95345.20
2019-06-08T16:40:12.205Z,95352.44
2019-06-08T16:42:40.869Z,95346.42
2019-06-08T16:45:10.212Z,95355.28
2019-06-08T16:47:40.360Z,95361.67
2019-06-08T16:50:23.432Z,95359.83
2019-06-08T16:52:39.769Z,95354.82
2019-06-08T16:55:08.736Z,95357.77
2019-06-08T16:57:39.330Z,95367.23
2019-06-08T17:02:39.372Z,95366.97
2019-06-08T17:05:08.772Z,95362.00
2019-06-08T17:07:37.809Z,95359.97
2019-06-08T17:10:07.238Z,95362.62
2019-06-08T17:12:37.004Z,95373.48
2019-06-08T17:15:07.633Z,95372.84
2019-06-08T17:17:36.620Z,95366.59
2019-06-08T17:20:06.780Z,95375.57
2019-06-08T17:22:36.824Z,95375.85
2019-06-08T17:25:08.436Z,95383.06
2019-06-08T17:27:37.290Z,95382.92
2019-06-08T17:30:08.693Z,95374.73
2019-06-08T17:32:38.483Z,95389.94
2019-06-08T17:35:07.977Z,95389.27
2019-06-08T17:37:38.025Z,95378.10
2019-06-08T17:40:07.218Z,95374.66
2019-06-08T17:42:35.873Z,95376.51
2019-06-08T17:45:07.728Z,95372.84
2019-06-08T17:49:08.927Z,95368.61
2019-06-08T17:51:39.414Z,95357.41
2019-06-08T17:54:09.923Z,95362.99
2019-06-08T17:56:41.226Z,95371.56
2019-06-08T17:59:11.932Z,95368.23
2019-06-08T18:01:43.566Z,95373.83
2019-06-08T18:04:14.018Z,95371.41
2019-06-08T18:06:44.658Z,95372.94
2019-06-08T18:09:17.349Z,95375.70
2019-06-08T18:11:48.037Z,95372.19
2019-06-08T18:14:18.787Z,95368.84
2019-06-08T18:16:49.183Z,95373.51
2019-06-08T18:19:28.528Z,95381.91
2019-06-08T18:22:04.280Z,95383.13
2019-06-08T18:24:31.254Z,95377.41
2019-06-08T18:27:01.625Z,95375.46
2019-06-08T18:29:32.197Z,95381.98
2019-06-08T18:32:02.567Z,95387.72
2019-06-08T18:34:32.926Z,95398.14
2019-06-08T18:37:03.281Z,95402.47
2019-06-08T18:39:35.013Z,95414.29
2019-06-08T18:42:08.067Z,95426.08
2019-06-08T18:44:41.011Z,95432.50
2019-06-08T18:47:11.215Z,95440.06
2019-06-08T18:49:43.081Z,95443.44
2019-06-08T18:52:13.816Z,95452.48
2019-06-08T18:54:44.293Z,95459.73
2019-06-08T18:57:14.606Z,95467.42
2019-06-08T18:59:48.656Z,95464.58
2019-06-08T19:02:18.012Z,95467.59
2019-06-08T19:04:50.393Z,95472.91
2019-06-08T19:07:20.794Z,95468.20
2019-06-08T19:09:51.812Z,95474.37
2019-06-08T19:12:22.297Z,95472.51
2019-06-08T19:14:52.733Z,95473.69
2019-06-08T19:17:23.103Z,95472.90
2019-06-08T19:19:53.470Z,95477.23
2019-06-08T19:22:23.846Z,95478.06
2019-06-08T19:24:54.309Z,95479.14
2019-06-08T19:27:24.705Z,95488.68
2019-06-08T19:29:55.013Z,95495.66
2019-06-08T19:32:27.890Z,95500.47
2019-06-08T19:34:58.067Z,95504.77
2019-06-08T19:37:32.058Z,95511.75
2019-06-08T19:40:00.733Z,95507.80
2019-06-08T19:42:39.966Z,95513.98
2019-06-08T19:45:05.600Z,95519.58
2019-06-08T19:47:35.690Z,95517.80
2019-06-08T19:50:07.900Z,95518.94
2019-06-08T19:52:42.094Z,95510.50
2019-06-08T19:55:10.643Z,95514.52
2019-06-08T19:57:41.361Z,95520.09
2019-06-08T20:00:13.558Z,95515.30
2019-06-08T20:02:44.640Z,95511.16
2019-06-08T20:05:17.451Z,95519.68
2019-06-08T20:07:49.122Z,95521.26
2019-06-08T20:10:19.618Z,95526.56
2019-06-08T20:12:50.944Z,95520.75
2019-06-08T20:15:21.401Z,95519.68
2019-06-08T20:17:52.033Z,95522.61
2019-06-08T20:20:22.424Z,95524.56
2019-06-08T20:22:53.621Z,95518.47
2019-06-08T20:25:24.224Z,95518.75
2019-06-08T20:27:54.583Z,95522.47
2019-06-08T20:30:24.962Z,95529.95
2019-06-08T20:32:57.434Z,95527.77
2019-06-08T20:35:28.005Z,95531.30
2019-06-08T20:37:58.588Z,95529.48
2019-06-08T20:40:29.125Z,95519.63
2019-06-08T20:42:59.488Z,95517.30
2019-06-08T20:45:30.096Z,95513.86
2019-06-08T20:48:00.455Z,95519.72
2019-06-08T20:50:30.891Z,95520.52
2019-06-08T20:53:01.304Z,95528.75
2019-06-08T20:55:31.677Z,95523.25
2019-06-08T20:58:02.051Z,95526.97
2019-06-08T21:00:32.405Z,95520.64
2019-06-08T21:03:03.272Z,95527.02
2019-06-08T21:05:33.786Z,95521.52
2019-06-08T21:08:04.522Z,95526.02
2019-06-08T21:10:37.603Z,95531.09
2019-06-08T21:13:07.348Z,95536.19
2019-06-08T21:15:38.401Z,95534.89
2019-06-08T21:18:09.053Z,95533.59
2019-06-08T21:20:39.348Z,95536.59
2019-06-08T21:23:09.733Z,95536.39
2019-06-08T21:25:40.098Z,95529.50
2019-06-08T21:28:10.410Z,95527.41
2019-06-08T21:30:40.792Z,95529.86
2019-06-08T21:33:11.162Z,95534.13
2019-06-08T21:35:41.495Z,95530.17
2019-06-08T21:38:23.280Z,95533.13
2019-06-08T21:40:43.959Z,95529.73
2019-06-08T21:43:14.314Z,95544.83
2019-06-08T21:45:44.838Z,95533.78
2019-06-08T21:48:15.200Z,95527.67
2019-06-08T21:50:49.004Z,95518.72
2019-06-08T21:53:18.149Z,95525.64
2019-06-08T21:55:49.569Z,95527.22
2019-06-08T21:58:20.952Z,95521.71
2019-06-08T22:00:52.672Z,95519.37
2019-06-08T22:03:23.052Z,95524.73
2019-06-08T22:05:53.901Z,95526.86
2019-06-08T22:08:24.413Z,95520.33
2019-06-08T22:10:54.789Z,95513.17
2019-06-08T22:13:25.247Z,95510.59
2019-06-08T22:15:58.271Z,95511.89
2019-06-08T22:18:27.845Z,95508.55
2019-06-08T22:20:59.792Z,95510.95
2019-06-08T22:23:30.504Z,95507.02
2019-06-08T22:26:01.265Z,95507.81
2019-06-08T22:28:31.584Z,95501.22
2019-06-08T22:31:01.949Z,95502.83
2019-06-08T22:33:32.494Z,95502.06
2019-06-08T22:36:02.931Z,95506.32
2019-06-08T22:38:33.382Z,95507.95
2019-06-08T22:41:03.750Z,95515.65
2019-06-08T22:43:34.237Z,95517.78
2019-06-08T22:46:04.598Z,95510.88
2019-06-08T22:48:35.039Z,95510.66
2019-06-08T22:51:07.823Z,95511.77
2019-06-08T22:53:38.430Z,95507.81
2019-06-08T22:56:08.930Z,95513.10
2019-06-08T22:58:39.354Z,95519.20
2019-06-08T23:01:11.546Z,95519.50
2019-06-08T23:03:41.864Z,95518.46
2019-06-08T23:06:12.248Z,95528.03
2019-06-08T23:08:42.647Z,95519.58
2019-06-08T23:11:13.024Z,95534.13
2019-06-08T23:13:43.380Z,95534.39
2019-06-08T23:16:13.761Z,95538.36
2019-06-08T23:18:44.163Z,95533.11
2019-06-08T23:21:14.542Z,95529.67
2019-06-08T23:23:44.896Z,95539.20
2019-06-08T23:26:15.279Z,95528.14
2019-06-08T23:28:47.141Z,95522.33
2019-06-08T23:31:24.855Z,95529.20
2019-06-08T23:33:49.763Z,95526.56
2019-06-08T23:36:46.015Z,95524.45
2019-06-08T23:38:52.084Z,95523.92
2019-06-08T23:41:22.497Z,95523.70
2019-06-08T23:43:52.862Z,95524.76
2019-06-08T23:46:23.278Z,95523.71
2019-06-08T23:48:53.640Z,95523.48
2019-06-08T23:51:24.050Z,95518.98
2019-06-08T23:53:59.619Z,95520.84
2019-06-08T23:56:29.696Z,95511.86
2019-06-08T23:59:01.314Z,95520.85
